createdAt,value
2023-04-17T00:00:33.781Z,8.15
2023-04-17T00:03:37.766Z,8.15
2023-04-17T00:06:43.153Z,8.15
2023-04-17T00:09:45.701Z,8.14
2023-04-17T00:12:48.524Z,8.15
2023-04-17T00:15:51.065Z,8.14
2023-04-17T00:18:54.989Z,8.14
2023-04-17T00:21:57.568Z,8.12
2023-04-17T00:25:00.186Z,8.11
2023-04-17T00:28:02.699Z,8.11
2023-04-17T00:31:05.764Z,8.11
2023-04-17T00:34:09.623Z,8.13
2023-04-17T00:37:12.224Z,8.11
2023-04-17T00:40:15.329Z,8.11
2023-04-17T00:43:17.950Z,8.11
2023-04-17T00:46:20.540Z,8.12
2023-04-17T00:49:24.498Z,8.09
2023-04-17T00:52:28.792Z,8.04
2023-04-17T00:55:31.870Z,8.04
2023-04-17T00:58:34.449Z,8.02
2023-04-17T01:01:37.067Z,7.95
2023-04-17T01:04:41.007Z,7.85
2023-04-17T01:07:43.583Z,7.78
2023-04-17T01:10:46.259Z,7.71
2023-04-17T01:13:49.051Z,7.63
2023-04-17T01:16:51.633Z,7.62
2023-04-17T01:19:55.643Z,7.59
2023-04-17T01:22:58.444Z,7.54
2023-04-17T01:26:02.279Z,7.52
2023-04-17T01:29:04.796Z,7.49
2023-04-17T01:32:07.303Z,7.47
2023-04-17T01:35:10.736Z,7.44
2023-04-17T01:38:13.296Z,7.40
2023-04-17T01:41:17.136Z,7.39
2023-04-17T01:44:19.684Z,7.38
2023-04-17T01:47:22.479Z,7.36
2023-04-17T01:50:25.060Z,7.34
2023-04-17T01:53:27.641Z,7.30
2023-04-17T01:56:31.595Z,7.27
2023-04-17T01:59:34.164Z,7.28
2023-04-17T02:02:36.912Z,7.24
2023-04-17T02:05:39.610Z,7.19
2023-04-17T02:08:42.146Z,7.16
2023-04-17T02:11:46.364Z,7.12
2023-04-17T02:14:48.894Z,7.11
2023-04-17T02:17:51.649Z,7.14
2023-04-17T02:20:54.414Z,7.19
2023-04-17T02:23:57.010Z,7.19
2023-04-17T02:27:00.921Z,7.21
2023-04-17T02:30:03.683Z,7.22
2023-04-17T02:33:06.227Z,7.22
2023-04-17T02:36:09.339Z,7.14
2023-04-17T02:39:12.110Z,7.19
2023-04-17T02:42:16.116Z,7.15
2023-04-17T02:45:18.621Z,7.11
2023-04-17T02:48:21.152Z,7.08
2023-04-17T02:51:23.672Z,7.08
2023-04-17T02:54:26.268Z,7.06
2023-04-17T02:57:30.157Z,7.03
2023-04-17T03:00:32.843Z,7.03
2023-04-17T03:03:38.756Z,7.00
2023-04-17T03:06:41.993Z,6.96
2023-04-17T03:09:45.618Z,6.95
2023-04-17T03:12:49.474Z,6.95
2023-04-17T03:15:51.990Z,6.94
2023-04-17T03:18:54.555Z,6.95
2023-04-17T03:21:57.116Z,6.97
2023-04-17T03:24:59.640Z,6.95
2023-04-17T03:28:03.483Z,6.94
2023-04-17T03:31:06.417Z,6.92
2023-04-17T03:34:08.966Z,6.92
2023-04-17T03:37:11.549Z,6.87
2023-04-17T03:40:14.351Z,6.86
2023-04-17T03:43:18.359Z,6.87
2023-04-17T03:46:21.002Z,6.86
2023-04-17T03:49:23.613Z,6.88
2023-04-17T03:52:26.244Z,6.88
2023-04-17T03:55:28.814Z,6.88
2023-04-17T03:58:32.751Z,6.88
2023-04-17T04:01:38.613Z,6.88
2023-04-17T04:04:41.385Z,6.90
2023-04-17T04:07:45.174Z,6.89
2023-04-17T04:10:47.768Z,6.89
2023-04-17T04:13:51.624Z,6.92
2023-04-17T04:16:54.193Z,6.94
2023-04-17T04:19:56.760Z,6.98
2023-04-17T04:22:59.319Z,7.03
2023-04-17T04:26:02.575Z,7.07
2023-04-17T04:29:06.525Z,7.10
2023-04-17T04:32:13.582Z,7.12
2023-04-17T04:35:16.726Z,7.12
2023-04-17T04:38:19.360Z,7.15
2023-04-17T04:41:25.190Z,7.16
2023-04-17T04:44:29.070Z,7.14
2023-04-17T04:47:31.731Z,7.14
2023-04-17T04:50:34.353Z,7.09
2023-04-17T04:53:36.924Z,7.03
2023-04-17T04:56:40.046Z,7.00
2023-04-17T04:59:43.915Z,7.00
2023-04-17T05:02:46.634Z,7.00
2023-04-17T05:05:50.450Z,6.99
2023-04-17T05:08:53.004Z,6.98
2023-04-17T05:11:55.567Z,6.99
2023-04-17T05:14:59.451Z,6.94
2023-04-17T05:18:02.085Z,6.93
2023-04-17T05:21:04.889Z,6.89
2023-04-17T05:24:07.793Z,6.87
2023-04-17T05:27:10.391Z,6.89
2023-04-17T05:30:15.840Z,6.91
2023-04-17T05:33:18.409Z,6.90
2023-04-17T05:36:22.223Z,6.89
2023-04-17T05:39:24.751Z,6.88
2023-04-17T05:42:27.268Z,6.88
2023-04-17T05:45:31.263Z,6.91
2023-04-17T05:48:34.035Z,6.93
2023-04-17T05:51:36.586Z,6.94
2023-04-17T05:54:39.124Z,6.97
2023-04-17T05:57:41.673Z,7.00
2023-04-17T06:00:45.529Z,7.01
2023-04-17T06:03:48.499Z,7.06
2023-04-17T06:06:51.491Z,7.09
2023-04-17T06:09:54.083Z,7.08
2023-04-17T06:12:56.690Z,7.08
2023-04-17T06:16:00.698Z,7.09
2023-04-17T06:19:03.318Z,7.08
2023-04-17T06:22:05.954Z,7.10
2023-04-17T06:25:09.284Z,7.12
2023-04-17T06:28:11.818Z,7.12
2023-04-17T06:31:15.844Z,7.16
2023-04-17T06:34:18.469Z,7.18
2023-04-17T06:37:21.018Z,7.19
2023-04-17T06:40:23.586Z,7.20
2023-04-17T06:43:26.071Z,7.22
2023-04-17T06:46:30.032Z,7.28
2023-04-17T06:49:32.641Z,7.32
2023-04-17T06:52:35.280Z,7.34
2023-04-17T06:55:37.818Z,7.36
2023-04-17T06:58:44.487Z,7.39
2023-04-17T07:01:48.666Z,7.40
2023-04-17T07:04:51.536Z,7.42
2023-04-17T07:07:55.199Z,7.42
2023-04-17T07:10:57.776Z,7.40
2023-04-17T07:14:00.386Z,7.41
2023-04-17T07:17:04.841Z,7.40
2023-04-17T07:20:08.512Z,7.39
2023-04-17T07:23:11.131Z,7.45
2023-04-17T07:26:13.704Z,7.48
2023-04-17T07:29:16.338Z,7.53
2023-04-17T07:32:20.347Z,7.54
2023-04-17T07:35:23.264Z,7.55
2023-04-17T07:38:25.983Z,7.55
2023-04-17T07:41:28.591Z,7.56
2023-04-17T07:44:31.146Z,7.60
2023-04-17T07:47:35.088Z,7.62
2023-04-17T07:50:37.708Z,7.60
2023-04-17T07:53:40.403Z,7.63
2023-04-17T07:56:42.986Z,7.62
2023-04-17T07:59:45.646Z,7.60
2023-04-17T08:02:49.721Z,7.63
2023-04-17T08:05:53.950Z,7.64
2023-04-17T08:08:56.827Z,7.64
2023-04-17T08:11:59.350Z,7.63
2023-04-17T08:15:01.963Z,7.62
2023-04-17T08:18:06.217Z,7.61
2023-04-17T08:21:09.202Z,7.60
2023-04-17T08:24:11.790Z,7.64
2023-04-17T08:27:15.108Z,7.63
2023-04-17T08:30:19.304Z,7.69
2023-04-17T08:33:23.413Z,7.75
2023-04-17T08:36:27.037Z,7.79
2023-04-17T08:39:30.056Z,7.86
2023-04-17T08:42:33.034Z,7.93
2023-04-17T08:45:35.580Z,8.00
2023-04-17T08:48:39.435Z,8.03
2023-04-17T08:51:42.524Z,8.09
2023-04-17T08:54:45.107Z,8.09
2023-04-17T08:58:00.996Z,8.10
2023-04-17T09:01:08.717Z,8.07
2023-04-17T09:04:12.922Z,8.06
2023-04-17T09:07:15.888Z,8.12
2023-04-17T09:10:18.435Z,8.16
2023-04-17T09:13:21.867Z,8.22
2023-04-17T09:16:25.626Z,8.29
2023-04-17T09:19:29.642Z,8.35
2023-04-17T09:22:32.175Z,8.40
2023-04-17T09:25:34.734Z,8.41
2023-04-17T09:28:39.476Z,8.43
2023-04-17T09:31:42.848Z,8.46
2023-04-17T09:34:47.133Z,8.50
2023-04-17T09:37:50.756Z,8.51
2023-04-17T09:40:53.332Z,8.55
2023-04-17T09:44:00.946Z,8.60
2023-04-17T09:47:03.997Z,8.61
2023-04-17T09:50:09.836Z,8.60
2023-04-17T09:53:12.966Z,8.61
2023-04-17T09:56:15.473Z,8.63
2023-04-17T09:59:17.982Z,8.70
2023-04-17T10:02:22.553Z,8.75
2023-04-17T10:05:28.781Z,8.85
2023-04-17T10:08:32.241Z,8.89
2023-04-17T10:11:36.474Z,9.02
2023-04-17T10:14:40.088Z,9.15
2023-04-17T10:17:42.626Z,9.20
2023-04-17T10:20:48.563Z,9.21
2023-04-17T10:23:51.223Z,9.18
2023-04-17T10:26:53.792Z,9.18
2023-04-17T10:29:56.916Z,9.23
2023-04-17T10:33:22.226Z,9.32
2023-04-17T10:36:52.523Z,9.43
2023-04-17T10:40:00.676Z,9.48
2023-04-17T10:43:04.495Z,9.59
2023-04-17T10:46:10.385Z,9.81
2023-04-17T10:49:13.291Z,9.95
2023-04-17T10:52:40.116Z,10.05
2023-04-17T10:55:48.671Z,10.18
2023-04-17T10:58:57.600Z,10.25
2023-04-17T11:02:04.617Z,10.29
2023-04-17T11:05:07.529Z,10.41
2023-04-17T11:08:11.586Z,10.59
2023-04-17T11:11:14.598Z,10.77
2023-04-17T11:14:18.791Z,10.95
2023-04-17T11:17:22.307Z,11.29
2023-04-17T11:20:25.473Z,11.67
2023-04-17T11:23:34.489Z,11.81
2023-04-17T11:26:43.149Z,11.72
2023-04-17T11:29:45.777Z,11.56
2023-04-17T11:32:48.318Z,11.51
2023-04-17T11:35:52.296Z,11.62
2023-04-17T11:38:57.850Z,11.82
2023-04-17T11:42:00.569Z,11.93
2023-04-17T11:45:07.870Z,11.99
2023-04-17T11:48:11.450Z,12.05
2023-04-17T11:51:14.037Z,12.18
2023-04-17T11:54:25.840Z,12.35
2023-04-17T11:57:28.439Z,12.42
2023-04-17T12:00:31.708Z,12.50
2023-04-17T12:03:35.522Z,12.67
2023-04-17T12:06:38.597Z,12.78
2023-04-17T12:09:42.504Z,12.96
2023-04-17T12:12:45.507Z,12.94
2023-04-17T12:15:48.140Z,12.98
2023-04-17T12:18:50.760Z,13.05
2023-04-17T12:21:54.312Z,13.05
2023-04-17T12:24:58.283Z,13.11
2023-04-17T12:28:00.833Z,13.20
2023-04-17T12:31:03.962Z,13.28
2023-04-17T12:34:06.584Z,13.32
2023-04-17T12:37:09.183Z,13.34
2023-04-17T12:40:13.217Z,13.39
2023-04-17T12:43:16.031Z,13.41
2023-04-17T12:46:18.614Z,13.29
2023-04-17T12:49:23.468Z,13.32
2023-04-17T12:52:26.108Z,13.34
2023-04-17T12:55:29.972Z,13.31
2023-04-17T12:58:32.894Z,13.29
2023-04-17T13:01:35.539Z,13.31
2023-04-17T13:04:38.254Z,13.34
2023-04-17T13:07:41.093Z,13.34
2023-04-17T13:10:45.044Z,13.31
2023-04-17T13:13:47.600Z,13.28
2023-04-17T13:16:50.875Z,13.30
2023-04-17T13:19:53.697Z,13.36
2023-04-17T13:22:58.322Z,13.34
2023-04-17T13:26:02.772Z,13.31
2023-04-17T13:29:05.297Z,13.28
2023-04-17T13:32:07.892Z,13.14
2023-04-17T13:35:13.085Z,13.10
2023-04-17T13:38:15.681Z,13.12
2023-04-17T13:41:19.557Z,13.07
2023-04-17T13:44:22.149Z,13.03
2023-04-17T13:47:24.756Z,13.03
2023-04-17T13:50:27.438Z,13.00
2023-04-17T13:53:30.034Z,12.96
2023-04-17T13:56:33.953Z,12.98
2023-04-17T13:59:36.554Z,12.95
2023-04-17T14:02:39.215Z,13.06
2023-04-17T14:05:41.862Z,13.07
2023-04-17T14:08:45.100Z,13.10
2023-04-17T14:11:48.961Z,13.15
2023-04-17T14:14:51.522Z,13.16
2023-04-17T14:17:54.151Z,13.22
2023-04-17T14:20:56.857Z,13.27
2023-04-17T14:23:59.372Z,13.33
2023-04-17T14:27:03.650Z,13.42
2023-04-17T14:30:07.382Z,13.44
2023-04-17T14:33:09.917Z,13.49
2023-04-17T14:36:12.441Z,13.52
2023-04-17T14:39:15.210Z,13.56
2023-04-17T14:42:19.270Z,13.61
2023-04-17T14:45:21.776Z,13.69
2023-04-17T14:48:24.596Z,13.70
2023-04-17T14:51:28.360Z,13.78
2023-04-17T14:54:31.027Z,13.78
2023-04-17T14:57:34.937Z,13.74
2023-04-17T15:00:38.270Z,13.73
2023-04-17T15:03:41.694Z,13.73
2023-04-17T15:06:45.776Z,13.76
2023-04-17T15:09:48.292Z,13.82
2023-04-17T15:12:52.222Z,13.84
2023-04-17T15:15:55.121Z,13.85
2023-04-17T15:18:57.681Z,13.84
2023-04-17T15:22:00.223Z,13.88
2023-04-17T15:25:02.766Z,13.89
2023-04-17T15:28:06.668Z,13.88
2023-04-17T15:31:09.227Z,13.89
2023-04-17T15:34:13.416Z,13.89
2023-04-17T15:37:16.151Z,13.90
2023-04-17T15:40:18.678Z,13.94
2023-04-17T15:43:22.668Z,13.99
2023-04-17T15:46:25.206Z,14.03
2023-04-17T15:49:28.392Z,14.01
2023-04-17T15:52:30.936Z,14.03
2023-04-17T15:55:36.198Z,14.07
2023-04-17T15:58:40.069Z,14.07
2023-04-17T16:01:42.638Z,14.06
2023-04-17T16:04:45.389Z,14.07
2023-04-17T16:07:48.031Z,14.05
2023-04-17T16:10:51.128Z,14.04
2023-04-17T16:13:55.050Z,14.01
2023-04-17T16:16:59.833Z,14.00
2023-04-17T16:20:03.574Z,13.98
2023-04-17T16:23:06.133Z,14.07
2023-04-17T16:26:08.649Z,14.14
2023-04-17T16:29:12.691Z,14.20
2023-04-17T16:32:15.460Z,14.19
2023-04-17T16:35:18.208Z,14.14
2023-04-17T16:38:20.705Z,14.07
2023-04-17T16:41:23.319Z,13.97
2023-04-17T16:44:27.838Z,13.96
2023-04-17T16:47:30.438Z,13.96
2023-04-17T16:50:33.073Z,13.96
2023-04-17T16:53:35.587Z,13.96
2023-04-17T16:56:38.180Z,13.96
2023-04-17T16:59:42.062Z,13.95
2023-04-17T17:02:44.699Z,13.95
2023-04-17T17:05:47.357Z,13.94
2023-04-17T17:08:49.939Z,13.92
2023-04-17T17:11:52.520Z,13.91
2023-04-17T17:14:56.453Z,13.85
2023-04-17T17:17:58.997Z,13.78
2023-04-17T17:21:02.015Z,13.77
2023-04-17T17:24:05.003Z,13.72
2023-04-17T17:27:07.559Z,13.67
2023-04-17T17:30:12.730Z,13.63
2023-04-17T17:33:16.951Z,13.59
2023-04-17T17:36:19.524Z,13.54
2023-04-17T17:39:22.392Z,13.51
2023-04-17T17:42:25.110Z,13.47
2023-04-17T17:45:28.971Z,13.45
2023-04-17T17:48:31.531Z,13.41
2023-04-17T17:51:34.072Z,13.34
2023-04-17T17:54:37.301Z,13.25
2023-04-17T17:57:48.810Z,13.17
2023-04-17T18:00:53.688Z,13.08
2023-04-17T18:03:56.432Z,12.98
2023-04-17T18:06:59.168Z,12.91
2023-04-17T18:10:01.700Z,12.84
2023-04-17T18:13:04.308Z,12.80
2023-04-17T18:16:08.789Z,12.73
2023-04-17T18:19:11.322Z,12.68
2023-04-17T18:22:13.888Z,12.63
2023-04-17T18:25:16.626Z,12.57
2023-04-17T18:28:19.226Z,12.52
2023-04-17T18:31:25.123Z,12.47
2023-04-17T18:34:27.760Z,12.41
2023-04-17T18:37:30.291Z,12.35
2023-04-17T18:40:32.825Z,12.31
2023-04-17T18:43:35.457Z,12.25
2023-04-17T18:46:39.394Z,12.17
2023-04-17T18:49:41.920Z,12.09
2023-04-17T18:52:48.740Z,12.04
2023-04-17T18:55:53.560Z,11.99
2023-04-17T18:58:56.100Z,11.94
2023-04-17T19:02:00.191Z,11.89
2023-04-17T19:05:02.806Z,11.82
2023-04-17T19:08:05.568Z,11.73
2023-04-17T19:11:08.139Z,11.65
2023-04-17T19:14:10.847Z,11.60
2023-04-17T19:17:15.883Z,11.54
2023-04-17T19:20:18.511Z,11.45
2023-04-17T19:23:21.071Z,11.41
2023-04-17T19:26:23.559Z,11.35
2023-04-17T19:29:26.261Z,11.29
2023-04-17T19:32:31.696Z,11.25
2023-04-17T19:35:34.483Z,11.23
2023-04-17T19:38:37.068Z,11.18
2023-04-17T19:41:39.648Z,11.13
2023-04-17T19:44:42.178Z,11.09
2023-04-17T19:47:46.051Z,11.04
2023-04-17T19:50:48.671Z,11.00
2023-04-17T19:53:53.150Z,10.96
2023-04-17T19:56:55.723Z,10.93
2023-04-17T19:59:58.312Z,10.88
2023-04-17T20:03:02.446Z,10.85
2023-04-17T20:06:05.271Z,10.82
2023-04-17T20:09:07.971Z,10.78
2023-04-17T20:12:10.549Z,10.74
2023-04-17T20:15:13.129Z,10.71
2023-04-17T20:18:17.312Z,10.67
2023-04-17T20:21:19.882Z,10.63
2023-04-17T20:24:22.476Z,10.60
2023-04-17T20:27:26.456Z,10.55
2023-04-17T20:30:29.254Z,10.51
2023-04-17T20:33:33.209Z,10.48
2023-04-17T20:36:35.774Z,10.43
2023-04-17T20:39:39.230Z,10.38
2023-04-17T20:42:42.250Z,10.33
2023-04-17T20:45:44.909Z,10.30
2023-04-17T20:48:50.198Z,10.25
2023-04-17T20:51:52.811Z,10.20
2023-04-17T20:54:55.686Z,10.13
2023-04-17T20:57:58.241Z,10.09
2023-04-17T21:01:01.823Z,10.04
2023-04-17T21:04:06.028Z,9.99
2023-04-17T21:07:08.659Z,9.95
2023-04-17T21:10:11.253Z,9.93
2023-04-17T21:13:13.816Z,9.85
2023-04-17T21:16:16.402Z,9.79
2023-04-17T21:19:22.506Z,9.74
2023-04-17T21:22:25.069Z,9.70
2023-04-17T21:25:27.667Z,9.64
2023-04-17T21:28:30.299Z,9.60
2023-04-17T21:31:32.904Z,9.59
2023-04-17T21:34:36.839Z,9.55
2023-04-17T21:37:39.394Z,9.53
2023-04-17T21:40:51.122Z,9.49
2023-04-17T21:43:54.651Z,9.46
2023-04-17T21:46:57.171Z,9.43
2023-04-17T21:50:01.096Z,9.42
2023-04-17T21:53:03.610Z,9.39
2023-04-17T21:56:07.115Z,9.39
2023-04-17T21:59:10.060Z,9.39
2023-04-17T22:02:12.682Z,9.36
2023-04-17T22:05:16.631Z,9.33
2023-04-17T22:08:19.184Z,9.30
2023-04-17T22:11:21.770Z,9.27
2023-04-17T22:14:24.280Z,9.24
2023-04-17T22:17:27.005Z,9.23
2023-04-17T22:20:30.940Z,9.20
2023-04-17T22:23:52.075Z,9.19
2023-04-17T22:27:30.852Z,9.18
2023-04-17T22:31:09.586Z,9.13
2023-04-17T22:34:30.532Z,9.09
2023-04-17T22:37:51.936Z,9.05
2023-04-17T22:41:12.136Z,9.04
2023-04-17T22:44:51.007Z,9.00
2023-04-17T22:48:10.850Z,8.96
2023-04-17T22:51:49.794Z,8.87
2023-04-17T22:55:10.923Z,8.83
2023-04-17T22:58:49.715Z,8.77
2023-04-17T23:02:29.800Z,8.72
2023-04-17T23:06:08.460Z,8.68
2023-04-17T23:09:11.168Z,8.62
2023-04-17T23:12:15.105Z,8.57
2023-04-17T23:15:17.597Z,8.55
2023-04-17T23:18:20.147Z,8.51
2023-04-17T23:21:22.761Z,8.47
2023-04-17T23:24:25.767Z,8.43
2023-04-17T23:27:29.695Z,8.41
2023-04-17T23:30:32.257Z,8.39
2023-04-17T23:33:34.819Z,8.40
2023-04-17T23:36:37.433Z,8.36
2023-04-17T23:39:40.466Z,8.36
2023-04-17T23:42:44.560Z,8.35
2023-04-17T23:45:47.137Z,8.34
2023-04-17T23:48:49.678Z,8.31
2023-04-17T23:51:52.228Z,8.29
2023-04-17T23:54:54.813Z,8.22
2023-04-17T23:57:58.782Z,8.20
